Aeroporto :
LOGIN :

Iscrizione | Disclaimer

   EN    FR    IT 

 










Sommario :    VFR   VFR Marginale   IFR   IFR Intensivo   IFR Molto Intensivo
Visibilità : 
Base nubi : 
>= 8 km
>= 3000ft
5 / 8 km
1000 / 3000 ft
1500m / 5 km
500 / 1000 ft
800 / 1500m
200 / 500 ft
< 800m
< 200 ft
Simboli :   Temporali  Nebbia  Neve Forte  Precipitazioni Forti  Vento > 20 kt
SIGMETs :   Varie  Temporali  Ghiacco  Turbolenza  Onda orograficha  Ceneri Vulcaniche






- Altitudine del aeroporto : 408 ft
- Codice IATA : KWG


UKDR - Lozuvatka

ULTIMO METAR :
  • 290400Z 10003MPS 060V140 5000 BR NSC 14/12 Q1016 R36/09//70 TEMPO 0500 FG SCT002

METARs OBSOLETI :
  • 290300Z 07002MPS 030V120 5000 BR NSC 14/12 Q1016 R36/09//70 NOSIG
  • 290200Z 07002MPS 5000 BR NSC 14/12 Q1016 R36/09//70 NOSIG

TAF TAF UKDR
Valido dal 29 a 00 ore il 30 a 00 ore UTC


282310Z 2900/2924 10003MPS 2200 BR SCT008
TEMPO 2901/2906 0500 FG VV002
BECMG 2906/2908 11007G12MPS 9999 NSW SCT025CB
TEMPO 2913/2918 12010G15MPS 2200 -TSRA BKN011 BKN020CB
FM291800 12007G12MPS 5000 -SHRA BKN008 BKN020CB
TEMPO 2918/2924 2200 -TSRA BR BKN011 BKN020CB
FIR UKDV / Europa



MetMap, La meteo Aeronautica in un colpo d'occhio ! - Copyright ORBIFLY Dicembre 2007 - Disclaimer

ORBIFLY MET'MAP TEAM :

Programmazione e sviluppo : Alexandra Zaïnal
Concezione : Baudouin d'Aumeries
Aiuto per la programmazione : Marc-Olivier Méhu
Supporto tecnico e logistico : Manuel Goepfert
Aiuto per la traduzione : Arnaldo La Scala

Contatto : metmap@orbifly.com




FONTI E CREDITI :

   NOAA